createdAt,value
2023-03-06T00:01:31.152Z,7.70
2023-03-06T00:06:52.086Z,3.72
2023-03-06T00:12:12.900Z,6.93
2023-03-06T00:17:33.772Z,4.53
2023-03-06T00:22:56.055Z,3.60
2023-03-06T00:28:17.980Z,5.47
2023-03-06T00:33:38.625Z,5.97
2023-03-06T00:38:59.356Z,4.60
2023-03-06T00:44:20.277Z,5.15
2023-03-06T00:49:41.540Z,4.15
2023-03-06T00:55:02.650Z,4.68
2023-03-06T01:00:23.554Z,5.55
2023-03-06T01:05:44.285Z,5.95
2023-03-06T01:11:06.075Z,6.80
2023-03-06T01:16:26.936Z,3.63
2023-03-06T01:21:47.730Z,6.05
2023-03-06T01:27:08.429Z,6.88
2023-03-06T01:32:29.059Z,7.25
2023-03-06T01:37:49.823Z,6.53
2023-03-06T01:43:31.735Z,5.10
2023-03-06T01:48:58.235Z,7.13
2023-03-06T01:54:27.255Z,6.47
2023-03-06T01:59:48.777Z,7.25
2023-03-06T02:05:09.986Z,6.57
2023-03-06T02:10:31.028Z,6.65
2023-03-06T02:15:51.679Z,6.82
2023-03-06T02:21:20.346Z,7.32
2023-03-06T02:26:41.278Z,8.23
2023-03-06T02:32:02.538Z,8.63
2023-03-06T02:37:24.470Z,8.77
2023-03-06T02:42:49.946Z,8.70
2023-03-06T02:48:12.707Z,9.32
2023-03-06T02:53:33.429Z,7.45
2023-03-06T02:58:54.172Z,10.15
2023-03-06T03:04:15.397Z,7.63
2023-03-06T03:09:37.318Z,9.75
2023-03-06T03:14:59.988Z,9.23
2023-03-06T03:20:22.390Z,9.95
2023-03-06T03:25:44.358Z,8.02
2023-03-06T03:31:06.477Z,9.82
2023-03-06T03:36:28.612Z,10.95
2023-03-06T03:41:49.841Z,10.65
2023-03-06T03:47:10.895Z,10.57
2023-03-06T03:52:32.093Z,11.95
2023-03-06T03:57:53.364Z,10.77
2023-03-06T04:03:14.090Z,14.30
2023-03-06T04:08:38.516Z,13.02
2023-03-06T04:13:59.746Z,10.50
2023-03-06T04:19:20.369Z,11.73
2023-03-06T04:24:41.083Z,17.27
2023-03-06T04:30:02.954Z,11.98
2023-03-06T04:35:25.211Z,14.07
2023-03-06T04:40:52.648Z,14.27
2023-03-06T04:46:13.364Z,12.15
2023-03-06T04:51:37.752Z,11.25
2023-03-06T04:56:58.901Z,13.10
2023-03-06T05:02:20.726Z,12.93
2023-03-06T05:07:41.754Z,13.88
2023-03-06T05:13:02.727Z,13.25
2023-03-06T05:18:23.818Z,14.60
2023-03-06T05:23:44.841Z,12.57
2023-03-06T05:29:05.638Z,12.43
2023-03-06T05:34:26.475Z,14.68
2023-03-06T05:39:47.372Z,14.60
2023-03-06T05:45:08.878Z,18.15
2023-03-06T05:50:30.173Z,14.27
2023-03-06T05:55:57.445Z,15.20
2023-03-06T06:01:19.360Z,18.42
2023-03-06T06:06:40.268Z,16.98
2023-03-06T06:12:02.655Z,16.40
2023-03-06T06:17:23.570Z,16.58
2023-03-06T06:22:44.572Z,15.35
2023-03-06T06:28:05.757Z,21.88
2023-03-06T06:33:26.729Z,14.50
2023-03-06T06:38:47.871Z,14.32
2023-03-06T06:44:11.256Z,14.85
2023-03-06T06:49:32.778Z,17.35
2023-03-06T06:54:53.604Z,17.17
2023-03-06T07:00:15.258Z,16.35
2023-03-06T07:05:35.715Z,18.88
2023-03-06T07:10:57.051Z,21.80
2023-03-06T07:16:18.168Z,17.75
2023-03-06T07:21:39.295Z,18.58
2023-03-06T07:27:00.324Z,22.27
2023-03-06T07:32:21.391Z,17.35
2023-03-06T07:37:42.863Z,18.92
2023-03-06T07:43:18.386Z,20.85
2023-03-06T07:48:47.413Z,22.88
2023-03-06T07:54:08.419Z,17.38
2023-03-06T07:59:29.112Z,16.65
2023-03-06T08:04:53.684Z,17.27
2023-03-06T08:10:15.038Z,18.08
2023-03-06T08:15:35.781Z,17.33
2023-03-06T08:21:06.359Z,17.92
2023-03-06T08:26:29.164Z,16.85
2023-03-06T08:31:50.035Z,19.63
2023-03-06T08:37:10.885Z,17.80
2023-03-06T08:42:32.218Z,16.85
2023-03-06T08:47:53.047Z,19.75
2023-03-06T08:53:13.946Z,19.45
2023-03-06T08:58:34.994Z,17.80
2023-03-06T09:03:57.719Z,18.45
2023-03-06T09:09:18.921Z,20.50
2023-03-06T09:14:40.000Z,18.25
2023-03-06T09:20:00.713Z,19.77
2023-03-06T09:25:23.309Z,21.20
2023-03-06T09:30:44.030Z,18.80
2023-03-06T09:36:05.710Z,20.60
2023-03-06T09:41:31.069Z,16.60
2023-03-06T09:47:00.977Z,15.25
2023-03-06T09:52:33.938Z,18.65
2023-03-06T09:57:56.191Z,14.50
2023-03-06T10:03:39.713Z,18.80
2023-03-06T10:09:41.487Z,16.40
2023-03-06T10:15:07.291Z,16.08
2023-03-06T10:20:49.702Z,17.55
2023-03-06T10:26:15.717Z,15.23
2023-03-06T10:31:36.427Z,15.88
2023-03-06T10:36:58.631Z,16.40
2023-03-06T10:42:19.471Z,12.25
2023-03-06T10:47:40.410Z,14.13
2023-03-06T10:53:10.757Z,14.02
2023-03-06T10:58:32.571Z,13.77
2023-03-06T11:03:54.222Z,13.65
2023-03-06T11:09:16.158Z,10.15
2023-03-06T11:14:37.045Z,12.15
2023-03-06T11:20:17.678Z,10.32
2023-03-06T11:25:43.910Z,11.32
2023-03-06T11:31:18.582Z,10.88
2023-03-06T11:36:48.028Z,8.68
2023-03-06T11:42:42.967Z,12.25
2023-03-06T11:48:13.937Z,8.02
2023-03-06T11:53:39.197Z,9.77
2023-03-06T11:59:18.845Z,10.05
2023-03-06T12:05:07.244Z,8.30
2023-03-06T12:10:31.782Z,13.63
2023-03-06T12:16:04.790Z,8.98
2023-03-06T12:21:37.759Z,7.55
2023-03-06T12:27:24.859Z,8.48
2023-03-06T12:33:10.418Z,7.43
2023-03-06T12:38:44.148Z,9.57
2023-03-06T12:44:26.368Z,7.50
2023-03-06T12:50:17.218Z,8.70
2023-03-06T12:55:46.301Z,8.13
2023-03-06T13:01:28.693Z,7.93
2023-03-06T13:07:04.639Z,8.65
2023-03-06T13:12:47.203Z,9.18
2023-03-06T13:18:23.390Z,8.57
2023-03-06T13:23:48.470Z,7.70
2023-03-06T13:29:36.966Z,10.07
2023-03-06T13:34:58.259Z,9.38
2023-03-06T13:40:27.283Z,9.20
2023-03-06T13:45:48.189Z,9.40
2023-03-06T13:51:23.048Z,9.98
2023-03-06T13:56:49.972Z,12.15
2023-03-06T14:02:37.201Z,12.18
2023-03-06T14:08:07.833Z,10.57
2023-03-06T14:13:41.845Z,9.60
2023-03-06T14:19:15.678Z,11.95
2023-03-06T14:24:38.330Z,11.05
2023-03-06T14:30:07.328Z,8.93
2023-03-06T14:35:32.338Z,6.82
2023-03-06T14:40:53.843Z,8.40
2023-03-06T14:46:19.977Z,7.20
2023-03-06T14:51:46.062Z,6.72
2023-03-06T14:57:08.985Z,9.73
2023-03-06T15:02:33.023Z,7.17
2023-03-06T15:07:55.308Z,6.43
2023-03-06T15:13:21.508Z,8.65
2023-03-06T15:19:00.450Z,6.28
2023-03-06T15:24:35.181Z,9.45
2023-03-06T15:30:34.070Z,7.43
2023-03-06T15:35:57.607Z,7.65
2023-03-06T15:41:23.196Z,9.55
2023-03-06T15:46:44.981Z,8.77
2023-03-06T15:52:07.040Z,8.48
2023-03-06T15:57:31.634Z,7.50
2023-03-06T16:02:53.394Z,6.57
2023-03-06T16:08:15.482Z,5.30
2023-03-06T16:13:36.854Z,6.40
2023-03-06T16:18:58.155Z,5.53
2023-03-06T16:24:19.334Z,8.63
2023-03-06T16:29:40.329Z,6.28
2023-03-06T16:35:01.515Z,5.07
2023-03-06T16:40:24.947Z,5.93
2023-03-06T16:45:46.104Z,5.10
2023-03-06T16:51:07.516Z,6.60
2023-03-06T16:56:29.124Z,8.93
2023-03-06T17:01:50.169Z,10.05
2023-03-06T17:07:11.643Z,7.65
2023-03-06T17:12:32.545Z,8.85
2023-03-06T17:17:53.690Z,9.52
2023-03-06T17:23:14.562Z,10.52
2023-03-06T17:28:36.468Z,10.10
2023-03-06T17:34:00.574Z,12.50
2023-03-06T17:39:21.411Z,11.20
2023-03-06T17:44:42.653Z,9.90
2023-03-06T17:50:04.145Z,10.38
2023-03-06T17:55:27.131Z,9.00
2023-03-06T18:00:48.433Z,9.68
2023-03-06T18:06:09.594Z,9.07
2023-03-06T18:11:30.733Z,9.70
2023-03-06T18:16:51.786Z,10.10
2023-03-06T18:22:12.772Z,12.27
2023-03-06T18:27:34.292Z,15.57
2023-03-06T18:32:55.269Z,13.70
2023-03-06T18:38:16.561Z,11.77
2023-03-06T18:43:37.675Z,13.05
2023-03-06T18:48:58.486Z,15.23
2023-03-06T18:54:19.360Z,11.77
2023-03-06T18:59:40.077Z,16.70
2023-03-06T19:05:00.839Z,16.35
2023-03-06T19:10:22.570Z,17.20
2023-03-06T19:15:48.119Z,16.48
2023-03-06T19:21:14.265Z,15.95
2023-03-06T19:26:35.903Z,13.07
2023-03-06T19:31:57.461Z,12.25
2023-03-06T19:37:18.754Z,13.55
2023-03-06T19:42:39.710Z,14.45
2023-03-06T19:48:01.003Z,14.80
2023-03-06T19:53:23.151Z,13.40
2023-03-06T19:58:43.973Z,13.65
2023-03-06T20:04:04.779Z,12.38
2023-03-06T20:09:26.019Z,13.45
2023-03-06T20:14:47.233Z,12.40
2023-03-06T20:20:09.349Z,12.00
2023-03-06T20:25:30.764Z,12.30
2023-03-06T20:30:51.740Z,14.55
2023-03-06T20:36:32.787Z,11.45
2023-03-06T20:41:53.866Z,10.95
2023-03-06T20:47:14.688Z,12.13
2023-03-06T20:52:35.526Z,13.75
2023-03-06T20:57:56.578Z,14.13
2023-03-06T21:03:17.376Z,11.93
2023-03-06T21:08:38.100Z,14.70
2023-03-06T21:13:58.813Z,12.43
2023-03-06T21:19:20.162Z,14.93
2023-03-06T21:24:41.463Z,12.32
2023-03-06T21:30:02.458Z,13.70
2023-03-06T21:35:23.762Z,12.88
2023-03-06T21:40:45.518Z,13.43
2023-03-06T21:46:07.039Z,12.23
2023-03-06T21:51:28.448Z,13.77
2023-03-06T21:56:49.713Z,12.80
2023-03-06T22:02:10.768Z,12.10
2023-03-06T22:07:34.961Z,13.40
2023-03-06T22:12:55.885Z,14.32
2023-03-06T22:18:16.859Z,14.48
2023-03-06T22:23:41.928Z,15.00
2023-03-06T22:29:05.366Z,14.95
2023-03-06T22:34:26.848Z,15.65
2023-03-06T22:39:47.876Z,16.35
2023-03-06T22:45:09.414Z,19.13
2023-03-06T22:50:32.504Z,16.38
2023-03-06T22:55:53.579Z,15.63
2023-03-06T23:01:16.505Z,15.60
2023-03-06T23:06:39.703Z,18.15
2023-03-06T23:12:00.645Z,19.35
2023-03-06T23:17:40.088Z,18.10
2023-03-06T23:23:19.839Z,17.85
2023-03-06T23:28:40.893Z,14.88
2023-03-06T23:34:02.505Z,15.75
2023-03-06T23:39:23.853Z,16.05
2023-03-06T23:44:45.216Z,18.83
2023-03-06T23:50:07.211Z,17.38
2023-03-06T23:55:27.654Z,19.95
